Time;durP1;ratioP1;P1;durP2;ratioP2;P2;SDS_P1;SDS_P2;PMS_P1;PMS_P2;Temp;Humidity;BMP_temperature;BMP_pressure;BME280_temperature;BME280_humidity;BME280_pressure;Samples;Min_cycle;Max_cycle;Signal;HPM_P1;HPM_P2
2022/05/05 00:00:11;;;;;;;0.00;0.00;;;;;;;7.51;70.40;101944.13;10501073;28;20127;-81
2022/05/05 00:05:13;;;;;;;0.00;0.00;;;;;;;7.35;70.75;101941.50;10502478;28;20097;-81
2022/05/05 00:15:35;;;;;;;0.00;0.00;;;;;;;7.37;69.72;101952.75;10534898;28;20499;-81
2022/05/05 00:20:37;;;;;;;0.00;0.00;;;;;;;7.47;68.44;101949.91;10514640;28;20139;-81
2022/05/05 00:25:38;;;;;;;0.00;0.00;;;;;;;8.69;61.25;101947.75;10528290;28;20157;-81
2022/05/05 00:30:40;;;;;;;0.00;0.00;;;;;;;7.17;71.15;101949.94;10521638;28;20156;-81
2022/05/05 00:35:42;;;;;;;0.00;0.00;;;;;;;7.20;73.29;101950.09;10475141;28;20052;-81
2022/05/05 00:40:44;;;;;;;0.00;0.00;;;;;;;6.89;71.45;101950.91;10510925;28;20561;-81
2022/05/05 00:45:45;;;;;;;0.00;0.00;;;;;;;6.83;71.18;101948.00;10492360;28;20056;-80
2022/05/05 00:50:47;;;;;;;0.00;0.00;;;;;;;7.01;71.49;101944.75;10503636;28;20127;-81
2022/05/05 00:55:51;;;;;;;0.00;0.00;;;;;;;6.94;70.69;101938.38;10534047;28;20052;-80
2022/05/05 01:00:54;;;;;;;0.00;0.00;;;;;;;6.99;72.27;101937.84;10519876;28;20102;-81
2022/05/05 01:05:56;;;;;;;0.00;0.00;;;;;;;6.74;73.00;101934.69;10529681;28;20530;-80
2022/05/05 01:10:58;;;;;;;0.00;0.00;;;;;;;6.94;72.55;101939.28;10532165;28;20060;-80
2022/05/05 01:16:00;;;;;;;0.00;0.00;;;;;;;6.96;71.27;101937.66;10532464;28;20101;-81
2022/05/05 01:21:02;;;;;;;0.00;0.00;;;;;;;6.72;73.01;101937.13;10518877;28;20053;-81
2022/05/05 01:31:24;;;;;;;0.00;0.00;;;;;;;6.75;73.55;101942.44;10513138;28;20457;-81
2022/05/05 01:36:26;;;;;;;0.00;0.00;;;;;;;6.76;73.40;101949.34;10541031;28;20048;-81
2022/05/05 01:41:27;;;;;;;0.00;0.00;;;;;;;6.44;75.32;101945.75;10522649;28;20056;-80
2022/05/05 01:46:29;;;;;;;0.00;0.00;;;;;;;6.32;75.55;101961.25;10497557;28;20060;-80
2022/05/05 01:51:31;;;;;;;0.00;0.00;;;;;;;6.35;73.68;101958.91;10513036;28;20506;-81
2022/05/05 01:56:32;;;;;;;0.00;0.00;;;;;;;6.24;74.17;101962.47;10540335;28;20487;-81
2022/05/05 02:01:34;;;;;;;0.00;0.00;;;;;;;6.45;71.83;101962.91;10524036;28;20107;-80
2022/05/05 02:06:35;;;;;;;0.00;0.00;;;;;;;6.18;73.91;101967.22;10540016;28;20056;-81
2022/05/05 02:11:41;;;;;;;0.00;0.00;;;;;;;6.35;75.07;101971.69;10538856;28;20048;-81
2022/05/05 02:16:43;;;;;;;0.00;0.00;;;;;;;6.11;75.41;101972.75;10536449;28;20412;-80
2022/05/05 02:21:44;;;;;;;0.00;0.00;;;;;;;5.80;75.58;101981.06;10515707;28;20492;-81
2022/05/05 02:26:46;;;;;;;0.00;0.00;;;;;;;6.16;76.43;101976.47;10496375;28;20056;-81
2022/05/05 02:31:47;;;;;;;0.00;0.00;;;;;;;6.14;75.01;101975.53;10514684;28;20044;-80
2022/05/05 02:42:09;;;;;;;0.00;0.00;;;;;;;5.85;76.75;101975.44;10509809;28;20569;-80
2022/05/05 02:47:12;;;;;;;0.00;0.00;;;;;;;5.52;77.23;101977.63;10496438;28;20546;-80
2022/05/05 02:52:13;;;;;;;0.00;0.00;;;;;;;5.97;75.93;101977.88;10532204;28;20087;-81
2022/05/05 02:57:15;;;;;;;0.00;0.00;;;;;;;5.92;74.20;101986.91;10538017;28;20063;-81
2022/05/05 03:02:17;;;;;;;0.00;0.00;;;;;;;6.04;74.72;101984.28;10523302;28;20055;-81
2022/05/05 03:07:19;;;;;;;0.00;0.00;;;;;;;5.98;76.03;101981.31;10537465;28;20055;-81
2022/05/05 03:12:20;;;;;;;0.00;0.00;;;;;;;6.10;74.00;101973.53;10536456;28;20089;-81
2022/05/05 03:17:27;;;;;;;0.00;0.00;;;;;;;6.07;75.52;101979.38;10536244;28;20146;-81
2022/05/05 03:22:29;;;;;;;0.00;0.00;;;;;;;5.86;76.09;101976.31;10515759;28;20511;-81
2022/05/05 03:27:31;;;;;;;0.00;0.00;;;;;;;5.88;76.15;101990.09;10535293;28;20395;-81
2022/05/05 03:32:32;;;;;;;0.00;0.00;;;;;;;5.77;77.01;101988.56;10535788;28;20076;-81
2022/05/05 03:37:34;;;;;;;0.00;0.00;;;;;;;5.75;76.05;101995.22;10525807;28;20063;-81
2022/05/05 03:42:36;;;;;;;0.00;0.00;;;;;;;5.57;76.78;101998.38;10522110;28;20052;-81
2022/05/05 03:47:38;;;;;;;0.00;0.00;;;;;;;5.69;74.35;102001.75;10530535;28;20086;-81
2022/05/05 03:52:39;;;;;;;0.00;0.00;;;;;;;5.82;76.22;101999.94;10520925;28;20048;-81
2022/05/05 03:57:41;;;;;;;0.00;0.00;;;;;;;5.79;74.40;102002.28;10535482;28;20071;-81
2022/05/05 04:02:42;;;;;;;0.00;0.00;;;;;;;5.77;76.56;102011.56;10520669;28;20088;-81
2022/05/05 04:07:44;;;;;;;0.00;0.00;;;;;;;5.75;76.79;102015.69;10530916;28;20052;-81
2022/05/05 04:12:46;;;;;;;0.00;0.00;;;;;;;5.84;75.29;102021.41;10516378;28;20044;-81
2022/05/05 04:17:48;;;;;;;0.00;0.00;;;;;;;5.98;74.51;102029.91;10521192;28;20048;-81
2022/05/05 04:22:49;;;;;;;0.00;0.00;;;;;;;6.11;74.34;102031.59;10498367;28;20060;-81
2022/05/05 04:27:51;;;;;;;0.00;0.00;;;;;;;6.11;75.83;102034.16;10511917;28;20056;-80
2022/05/05 04:32:53;;;;;;;0.00;0.00;;;;;;;6.02;76.83;102032.81;10501541;28;20110;-79
2022/05/05 04:37:54;;;;;;;0.00;0.00;;;;;;;6.33;76.42;102038.91;10507678;28;20044;-81
2022/05/05 04:42:57;;;;;;;0.00;0.00;;;;;;;6.39;76.50;102038.41;10502003;28;20048;-80
2022/05/05 04:47:58;;;;;;;0.00;0.00;;;;;;;6.72;75.99;102046.41;10508423;28;20106;-80
2022/05/05 04:53:00;;;;;;;0.00;0.00;;;;;;;6.77;75.97;102047.53;10506960;28;20086;-80
2022/05/05 04:58:02;;;;;;;0.00;0.00;;;;;;;6.95;75.11;102043.53;10528798;28;20063;-81
2022/05/05 05:03:03;;;;;;;0.00;0.00;;;;;;;6.93;76.35;102050.22;10526122;28;20095;-80
2022/05/05 05:08:05;;;;;;;0.00;0.00;;;;;;;7.08;75.94;102050.22;10540376;28;20409;-80
2022/05/05 05:13:08;;;;;;;0.00;0.00;;;;;;;7.12;76.07;102056.41;10553395;28;20066;-81
2022/05/05 05:18:10;;;;;;;0.00;0.00;;;;;;;7.08;75.77;102057.91;10536305;28;20467;-80
2022/05/05 05:23:11;;;;;;;0.00;0.00;;;;;;;7.84;74.48;102051.97;10538655;28;20044;-81
2022/05/05 05:28:13;;;;;;;0.00;0.00;;;;;;;7.78;74.53;102060.22;10538309;28;20052;-81
2022/05/05 05:33:15;;;;;;;0.00;0.00;;;;;;;7.86;73.06;102064.88;10538083;28;20082;-81
2022/05/05 05:38:20;;;;;;;0.00;0.00;;;;;;;8.23;73.41;102067.78;10537856;28;20082;-80
2022/05/05 05:43:22;;;;;;;0.00;0.00;;;;;;;8.28;72.27;102064.59;10530192;28;20131;-81
2022/05/05 05:48:23;;;;;;;0.00;0.00;;;;;;;8.68;72.09;102071.84;10535333;28;20139;-80
2022/05/05 05:53:25;;;;;;;0.00;0.00;;;;;;;8.78;72.44;102071.53;10536083;28;20068;-80
2022/05/05 05:58:26;;;;;;;0.00;0.00;;;;;;;8.48;73.29;102074.28;10533245;28;20099;-81
2022/05/05 06:08:49;;;;;;;0.00;0.00;;;;;;;8.72;73.66;102084.09;10504830;28;20048;-81
2022/05/05 06:13:51;;;;;;;0.00;0.00;;;;;;;9.42;71.25;102085.91;10518260;28;20045;-81
2022/05/05 06:18:52;;;;;;;0.00;0.00;;;;;;;9.91;71.61;102086.53;10505399;28;20466;-81
2022/05/05 06:23:54;;;;;;;0.00;0.00;;;;;;;10.02;72.29;102090.47;10508568;28;20443;-81
2022/05/05 06:28:56;;;;;;;0.00;0.00;;;;;;;10.15;71.30;102092.84;10534955;28;20090;-81
2022/05/05 06:33:57;;;;;;;0.32;0.20;;;;;;;10.44;71.74;102095.00;10539593;28;20051;-81
2022/05/05 06:38:59;;;;;;;0.00;0.00;;;;;;;11.25;68.40;102099.41;10524071;28;20098;-81
2022/05/05 06:44:03;;;;;;;0.13;0.13;;;;;;;11.39;67.94;102103.44;10496760;28;20110;-80
2022/05/05 06:49:05;;;;;;;0.10;0.10;;;;;;;12.33;66.77;102098.56;10494790;28;20052;-81
2022/05/05 06:54:08;;;;;;;0.00;0.00;;;;;;;13.08;62.81;102106.41;10521107;28;20412;-81
2022/05/05 06:59:10;;;;;;;0.45;0.45;;;;;;;13.84;61.07;102096.88;10509852;28;20057;-81
2022/05/05 07:15:01;;;;;;;0.03;0.03;;;;;;;14.63;58.46;102109.59;10521750;28;20317;-81
2022/05/05 07:20:04;;;;;;;0.22;0.22;;;;;;;14.98;56.89;102108.84;10529448;28;20052;-81
2022/05/05 07:25:07;;;;;;;0.00;0.00;;;;;;;15.64;55.76;102101.88;10532695;28;20087;-81
2022/05/05 07:30:09;;;;;;;0.00;0.00;;;;;;;16.32;53.74;102109.50;10528462;28;20569;-76
2022/05/05 07:35:11;;;;;;;0.60;0.60;;;;;;;16.32;51.90;102113.84;10531725;28;20427;-77
2022/05/05 07:47:12;;;;;;;0.20;0.20;;;;;;;16.24;50.53;102123.19;10526255;28;20040;-79
2022/05/05 07:52:13;;;;;;;0.00;0.00;;;;;;;16.84;48.28;102123.56;10535476;28;20048;-77
2022/05/05 07:57:17;;;;;;;0.00;0.00;;;;;;;16.52;46.71;102126.38;10531831;28;20057;-78
2022/05/05 08:02:19;;;;;;;0.10;0.10;;;;;;;16.83;45.87;102132.19;10519358;28;20055;-76
2022/05/05 08:07:21;;;;;;;0.00;0.00;;;;;;;17.36;46.68;102132.34;10517509;28;20040;-78
2022/05/05 08:12:22;;;;;;;0.22;0.05;;;;;;;17.20;41.95;102132.94;10533121;28;20087;-77
2022/05/05 08:17:24;;;;;;;0.00;0.00;;;;;;;18.38;42.43;102133.91;10537077;28;20059;-77
2022/05/05 08:28:33;;;;;;;0.17;0.17;;;;;;;17.69;45.65;102136.34;10531020;28;20060;-79
2022/05/05 08:34:37;;;;;;;0.00;0.00;;;;;;;18.34;42.59;102142.56;10536349;28;20048;-78
2022/05/05 08:39:39;;;;;;;0.00;0.00;;;;;;;20.22;38.95;102137.41;10526156;28;20040;-77
2022/05/05 08:44:41;;;;;;;0.00;0.00;;;;;;;20.92;37.77;102138.59;10538423;28;20052;-76
2022/05/05 08:49:43;;;;;;;0.00;0.00;;;;;;;21.27;37.55;102139.53;10539915;28;20044;-77
2022/05/05 08:54:47;;;;;;;0.00;0.00;;;;;;;19.33;38.93;102146.31;10538607;28;20048;-76
2022/05/05 08:59:49;;;;;;;0.00;0.00;;;;;;;20.58;41.75;102143.69;10539306;28;20117;-77
2022/05/05 09:04:51;;;;;;;0.00;0.00;;;;;;;20.29;40.25;102152.25;10537905;28;20056;-77
2022/05/05 09:09:53;;;;;;;0.00;0.00;;;;;;;20.42;38.99;102157.56;10497218;28;20060;-77
2022/05/05 09:14:55;;;;;;;0.00;0.00;;;;;;;21.26;35.54;102163.97;10509628;28;20131;-77
2022/05/05 09:19:59;;;;;;;0.00;0.00;;;;;;;20.41;36.66;102161.06;10508093;28;20082;-78
2022/05/05 09:25:02;;;;;;;0.00;0.00;;;;;;;20.41;37.16;102164.53;10517382;28;20454;-79
2022/05/05 09:30:13;;;;;;;0.00;0.00;;;;;;;20.66;37.20;102156.81;10529266;28;20054;-78
2022/05/05 09:35:17;;;;;;;0.00;0.00;;;;;;;21.98;38.43;102154.38;10534671;28;20076;-77
2022/05/05 09:40:20;;;;;;;0.00;0.00;;;;;;;21.43;36.58;102160.50;10526338;28;20056;-77
2022/05/05 09:45:25;;;;;;;0.00;0.00;;;;;;;21.52;35.93;102161.38;10526638;28;20059;-78
2022/05/05 09:50:29;;;;;;;0.00;0.00;;;;;;;20.43;36.16;102169.81;10545199;28;20055;-79
2022/05/05 10:01:00;;;;;;;0.00;0.00;;;;;;;21.61;35.04;102170.16;10545147;28;20082;-77
2022/05/05 10:06:05;;;;;;;0.00;0.00;;;;;;;22.52;36.39;102167.38;10543552;28;20090;-76
2022/05/05 10:11:07;;;;;;;0.10;0.10;;;;;;;23.11;34.87;102167.97;10544300;28;20056;-77
2022/05/05 10:16:09;;;;;;;0.00;0.00;;;;;;;23.35;35.27;102166.03;10542696;28;20048;-76
2022/05/05 10:21:30;;;;;;;0.00;0.00;;;;;;;23.20;34.94;102168.78;10556631;28;20052;-78
2022/05/05 10:26:33;;;;;;;0.10;0.10;;;;;;;22.12;34.91;102170.06;10528773;28;20048;-77
2022/05/05 10:31:42;;;;;;;0.00;0.00;;;;;;;22.86;35.09;102169.81;10536358;28;20059;-77
2022/05/05 10:37:10;;;;;;;;;;;;;;;21.80;35.50;102160.53;10544592;28;20037;-77
2022/05/05 10:42:14;;;;;;;0.15;0.13;;;;;;;21.46;38.60;102161.38;10509735;28;20387;-77
2022/05/05 10:47:58;;;;;;;0.17;0.10;;;;;;;20.41;37.41;102158.44;10500886;28;20060;-77
2022/05/05 10:53:03;;;;;;;0.10;0.10;;;;;;;22.88;38.23;102164.59;10491992;28;20067;-77
2022/05/05 10:58:05;;;;;;;0.10;0.10;;;;;;;19.97;40.28;102171.28;10496976;28;20041;-78
2022/05/05 11:03:07;;;;;;;0.25;0.25;;;;;;;18.50;40.92;102181.91;10510069;28;20109;-78
2022/05/05 11:08:17;;;;;;;0.00;0.00;;;;;;;21.54;36.19;102170.13;10538411;28;20051;-78
2022/05/05 11:13:35;;;;;;;0.10;0.10;;;;;;;22.04;35.42;102159.59;10554010;28;20056;-79
2022/05/05 11:24:09;;;;;;;0.20;0.10;;;;;;;22.00;36.00;102164.00;10538606;28;20580;-78
2022/05/05 11:29:17;;;;;;;0.30;0.30;;;;;;;22.74;34.21;102156.75;10540259;28;20102;-78
2022/05/05 11:34:21;;;;;;;0.10;0.10;;;;;;;22.12;35.29;102163.09;10539727;28;20562;-79
2022/05/05 11:39:22;;;;;;;0.00;0.00;;;;;;;;;;10527470;28;20052;-76
2022/05/05 11:44:25;;;;;;;0.00;0.00;;;;;;;21.94;34.21;102165.72;10528284;28;20102;-77
2022/05/05 11:49:32;;;;;;;0.80;0.38;;;;;;;21.91;34.49;102163.13;10523668;28;20491;-77
2022/05/05 11:54:34;;;;;;;0.00;0.00;;;;;;;21.74;34.79;102161.41;10525237;28;20414;-76
2022/05/05 12:04:57;;;;;;;0.00;0.00;;;;;;;21.81;34.82;102160.50;10530850;28;20044;-78
2022/05/05 12:10:07;;;;;;;0.10;0.10;;;;;;;21.80;34.15;102157.91;10535477;28;20063;-80
2022/05/05 12:15:11;;;;;;;0.00;0.00;;;;;;;22.33;36.15;102151.66;10533460;28;20075;-78
2022/05/05 12:20:16;;;;;;;0.00;0.00;;;;;;;22.71;35.29;102151.53;10537186;28;20404;-75
2022/05/05 12:25:18;;;;;;;0.00;0.00;;;;;;;23.17;33.83;102150.38;10532298;28;20076;-75
2022/05/05 12:30:39;;;;;;;0.00;0.00;;;;;;;21.90;33.57;102146.50;10515157;28;20056;-75
2022/05/05 12:35:43;;;;;;;0.05;0.05;;;;;;;21.90;34.43;102145.63;10527497;28;20052;-75
2022/05/05 12:41:05;;;;;;;0.00;0.00;;;;;;;21.34;35.37;102146.50;10527340;28;20508;-76
2022/05/05 12:46:07;;;;;;;0.00;0.00;;;;;;;20.61;36.60;102143.69;10531133;28;20106;-75
2022/05/05 12:51:17;;;;;;;0.15;0.15;;;;;;;20.27;36.07;102148.78;10532083;28;20061;-76
2022/05/05 13:01:44;;;;;;;0.00;0.00;;;;;;;19.30;38.31;102164.59;10530640;28;20101;-80
2022/05/05 13:06:48;;;;;;;0.00;0.00;;;;;;;19.65;38.17;102160.53;10528067;28;20494;-80
2022/05/05 13:11:52;;;;;;;0.00;0.00;;;;;;;19.92;37.03;102162.50;10516069;28;20105;-79
2022/05/05 13:16:56;;;;;;;0.38;0.30;;;;;;;19.78;37.69;102162.38;10520353;28;20044;-77
2022/05/05 13:21:59;;;;;;;0.00;0.00;;;;;;;19.84;40.50;102165.91;10534570;28;20496;-77
2022/05/05 13:27:04;;;;;;;0.00;0.00;;;;;;;19.88;38.79;102165.09;10523657;28;20372;-75
2022/05/05 13:32:07;;;;;;;0.00;0.00;;;;;;;20.07;36.54;102166.97;10543073;28;20052;-75
2022/05/05 13:37:09;;;;;;;0.00;0.00;;;;;;;20.42;37.94;102161.06;10542610;28;20380;-76
2022/05/05 13:42:11;;;;;;;0.00;0.00;;;;;;;20.89;36.33;102164.75;10537653;28;20052;-75
2022/05/05 13:47:16;;;;;;;0.03;0.03;;;;;;;20.37;37.36;102164.50;10543061;28;20052;-75
2022/05/05 13:52:26;;;;;;;0.77;0.65;;;;;;;20.64;36.64;102162.91;10513766;28;20048;-75
2022/05/05 13:57:28;;;;;;;0.00;0.00;;;;;;;20.72;36.72;102161.19;10528453;28;20465;-75
2022/05/05 14:02:40;;;;;;;0.00;0.00;;;;;;;20.85;36.49;102167.38;10535894;28;20040;-75
2022/05/05 14:13:05;;;;;;;0.00;0.00;;;;;;;20.89;36.01;102162.13;10538776;28;20073;-76
2022/05/05 14:18:08;;;;;;;0.00;0.00;;;;;;;20.73;35.64;102162.97;10534262;28;20083;-77
2022/05/05 14:23:12;;;;;;;0.00;0.00;;;;;;;21.06;35.82;102156.97;10534211;28;20430;-75
2022/05/05 14:28:13;;;;;;;0.05;0.05;;;;;;;20.10;37.40;102158.25;10523678;28;20044;-75
2022/05/05 14:33:25;;;;;;;0.00;0.00;;;;;;;20.72;35.61;102166.44;10531923;28;20105;-75
2022/05/05 14:38:27;;;;;;;0.17;0.17;;;;;;;19.90;38.25;102174.72;10530048;28;20044;-75
2022/05/05 14:43:29;;;;;;;0.00;0.00;;;;;;;20.58;36.26;102159.41;10545346;28;20040;-75
2022/05/05 14:48:30;;;;;;;0.47;0.40;;;;;;;19.15;39.93;102172.28;10534165;28;20093;-75
2022/05/05 14:53:35;;;;;;;0.10;0.10;;;;;;;19.17;38.62;102174.03;10528355;28;20097;-75
2022/05/05 14:58:37;;;;;;;0.00;0.00;;;;;;;19.01;41.62;102165.16;10533923;28;20044;-75
2022/05/05 15:03:40;;;;;;;0.00;0.00;;;;;;;19.18;38.31;102174.91;10512201;28;20079;-75
2022/05/05 15:08:42;;;;;;;0.32;0.32;;;;;;;19.06;39.29;102180.00;10529748;28;20157;-76
2022/05/05 15:13:47;;;;;;;0.00;0.00;;;;;;;19.12;39.12;102180.06;10531832;28;20055;-76
2022/05/05 15:18:51;;;;;;;0.00;0.00;;;;;;;19.37;41.70;102177.72;10530425;28;20063;-77
2022/05/05 15:23:54;;;;;;;0.00;0.00;;;;;;;18.67;40.53;102179.53;10519947;28;20052;-75
2022/05/05 15:28:57;;;;;;;0.00;0.00;;;;;;;19.14;41.11;102183.56;10514024;28;20129;-76
2022/05/05 15:33:59;;;;;;;0.00;0.00;;;;;;;19.11;40.83;102188.75;10528164;28;20056;-76
2022/05/05 15:39:05;;;;;;;0.05;0.05;;;;;;;19.10;40.43;102189.63;10502664;28;20064;-79
2022/05/05 15:44:38;;;;;;;0.00;0.00;;;;;;;18.93;42.33;102192.94;10559798;28;20052;-78
2022/05/05 15:49:40;;;;;;;0.00;0.00;;;;;;;18.84;42.81;102190.16;10540052;28;20434;-77
2022/05/05 15:54:42;;;;;;;0.00;0.00;;;;;;;19.06;41.45;102182.59;10519571;28;20094;-80
2022/05/05 15:59:47;;;;;;;0.00;0.00;;;;;;;19.00;42.29;102184.31;10533625;28;21196;-80
2022/05/05 16:04:49;;;;;;;0.00;0.00;;;;;;;18.47;41.24;102187.94;10543599;28;20109;-82
2022/05/05 16:09:51;;;;;;;0.00;0.00;;;;;;;18.96;41.63;102192.94;10540290;28;20053;-80
2022/05/05 16:15:03;;;;;;;0.00;0.00;;;;;;;18.91;43.13;102189.38;10526314;28;20384;-81
2022/05/05 16:20:08;;;;;;;0.03;0.03;;;;;;;18.67;44.12;102190.81;10521081;28;20041;-81
2022/05/05 16:30:35;;;;;;;0.00;0.00;;;;;;;18.83;43.44;102191.03;10530335;28;20071;-82
2022/05/05 16:35:37;;;;;;;0.00;0.00;;;;;;;18.81;42.70;102192.72;10527857;28;20052;-82
2022/05/05 16:40:39;;;;;;;0.38;0.28;;;;;;;18.47;42.27;102192.31;10511715;28;20388;-82
2022/05/05 16:45:44;;;;;;;0.00;0.00;;;;;;;18.89;42.10;102198.06;10518832;28;20098;-81
2022/05/05 16:50:46;;;;;;;0.00;0.00;;;;;;;18.91;42.08;102196.34;10528796;28;20056;-81
2022/05/05 16:56:05;;;;;;;0.00;0.00;;;;;;;18.89;43.36;102198.06;10538549;28;20048;-81
2022/05/05 17:01:15;;;;;;;0.00;0.00;;;;;;;18.64;42.52;102201.25;10531805;28;20056;-81
2022/05/05 17:06:25;;;;;;;0.17;0.17;;;;;;;18.52;41.54;102201.06;10532799;28;20082;-80
2022/05/05 17:11:28;;;;;;;0.00;0.00;;;;;;;18.82;41.69;102204.94;10523436;28;20079;-80
2022/05/05 17:16:45;;;;;;;0.00;0.00;;;;;;;18.74;42.45;102201.34;10544692;28;20040;-80
2022/05/05 17:21:47;;;;;;;0.00;0.00;;;;;;;18.60;41.17;102195.97;10522682;28;20040;-80
2022/05/05 17:26:49;;;;;;;0.00;0.00;;;;;;;18.99;42.64;102203.44;10506546;28;20048;-80
2022/05/05 17:31:51;;;;;;;0.00;0.00;;;;;;;18.45;41.46;102209.66;10521820;28;20052;-80
2022/05/05 17:36:55;;;;;;;0.00;0.00;;;;;;;18.82;41.40;102215.38;10543679;28;20109;-81
2022/05/05 17:41:58;;;;;;;0.00;0.00;;;;;;;18.84;43.31;102203.22;10538606;28;20051;-80
2022/05/05 17:52:22;;;;;;;0.00;0.00;;;;;;;18.86;45.17;102209.34;10530256;28;20110;-80
2022/05/05 17:57:24;;;;;;;0.00;0.00;;;;;;;18.70;45.87;102214.38;10516657;28;20071;-80
2022/05/05 18:02:26;;;;;;;0.38;0.38;;;;;;;18.57;44.58;102215.06;10521776;28;20151;-80
2022/05/05 18:07:29;;;;;;;0.00;0.00;;;;;;;18.55;45.01;102222.00;10536900;28;20131;-80
2022/05/05 18:12:40;;;;;;;0.00;0.00;;;;;;;18.36;47.39;102220.84;10538126;28;20055;-81
2022/05/05 18:17:48;;;;;;;0.00;0.00;;;;;;;18.23;48.09;102228.50;10539730;28;20390;-81
2022/05/05 18:22:50;;;;;;;0.00;0.00;;;;;;;18.26;48.18;102229.38;10540285;28;20418;-81
2022/05/05 18:27:52;;;;;;;0.00;0.00;;;;;;;18.03;46.05;102228.19;10540058;28;20133;-81
2022/05/05 18:32:53;;;;;;;0.00;0.00;;;;;;;18.03;46.62;102233.41;10541045;28;20064;-81
2022/05/05 18:37:55;;;;;;;0.00;0.00;;;;;;;17.83;46.62;102240.00;10523023;28;20445;-81
2022/05/05 18:42:56;;;;;;;0.00;0.00;;;;;;;17.65;48.67;102235.34;10531540;28;20169;-80
2022/05/05 18:47:59;;;;;;;0.00;0.00;;;;;;;17.07;51.22;102246.38;10539594;28;20483;-80
2022/05/05 18:53:02;;;;;;;0.00;0.00;;;;;;;16.59;52.71;102247.94;10528768;28;20048;-76
2022/05/05 18:58:04;;;;;;;0.00;0.00;;;;;;;16.23;54.73;102254.03;10536552;28;20044;-76
2022/05/05 19:03:06;;;;;;;0.00;0.00;;;;;;;15.89;57.71;102263.63;10530335;28;20134;-76
2022/05/05 19:08:08;;;;;;;0.00;0.00;;;;;;;15.48;57.93;102257.31;10521247;28;20071;-76
2022/05/05 19:13:09;;;;;;;0.00;0.00;;;;;;;15.40;57.63;102269.22;10516653;28;20087;-76
2022/05/05 19:18:11;;;;;;;0.00;0.00;;;;;;;14.98;57.39;102286.19;10520369;28;20044;-76
2022/05/05 19:23:14;;;;;;;0.00;0.00;;;;;;;14.78;58.44;102293.34;10510817;28;20450;-77
2022/05/05 19:28:17;;;;;;;0.10;0.10;;;;;;;14.40;60.30;102300.81;10520049;28;20200;-78
2022/05/05 19:33:28;;;;;;;0.32;0.32;;;;;;;14.09;60.67;102299.78;10526271;28;21002;-77
2022/05/05 19:38:30;;;;;;;0.00;0.00;;;;;;;13.62;62.08;102308.53;10526621;28;20402;-77
2022/05/05 19:43:33;;;;;;;0.00;0.00;;;;;;;13.52;62.37;102314.19;10526076;28;20044;-77
2022/05/05 19:48:35;;;;;;;0.00;0.00;;;;;;;12.81;65.33;102327.03;10534783;28;20457;-77
2022/05/05 19:53:37;;;;;;;0.00;0.00;;;;;;;12.69;64.57;102320.56;10519957;28;20093;-77
2022/05/05 20:04:00;;;;;;;0.00;0.00;;;;;;;12.92;63.44;102337.81;10525629;28;20079;-77
2022/05/05 20:09:04;;;;;;;0.00;0.00;;;;;;;12.48;65.66;102348.09;10520698;28;20048;-76
2022/05/05 20:14:07;;;;;;;0.00;0.00;;;;;;;12.69;65.93;102354.19;10537694;28;20071;-76
2022/05/05 20:19:09;;;;;;;0.00;0.00;;;;;;;12.82;64.94;102352.94;10521420;28;20040;-77
2022/05/05 20:24:11;;;;;;;0.22;0.20;;;;;;;12.74;64.82;102369.00;10518803;28;20105;-77
2022/05/05 20:29:13;;;;;;;0.00;0.00;;;;;;;12.50;65.09;102359.41;10521999;28;20499;-76
2022/05/05 20:34:14;;;;;;;2.92;2.10;;;;;;;11.72;67.25;102368.09;10525638;28;20473;-76
2022/05/05 20:39:17;;;;;;;0.00;0.00;;;;;;;11.68;68.52;102373.97;10519710;28;20040;-76
2022/05/05 20:44:20;;;;;;;0.00;0.00;;;;;;;11.59;68.84;102371.81;10529768;28;21068;-77
2022/05/05 20:49:28;;;;;;;0.00;0.00;;;;;;;11.80;68.37;102378.78;10518944;28;20204;-77
2022/05/05 20:54:29;;;;;;;0.00;0.00;;;;;;;11.82;67.08;102382.31;10523838;28;20051;-77
2022/05/05 20:59:31;;;;;;;0.00;0.00;;;;;;;11.95;65.44;102383.75;10520920;28;20499;-77
2022/05/05 21:04:39;;;;;;;0.00;0.00;;;;;;;11.88;66.16;102380.88;10528159;28;20138;-77
2022/05/05 21:09:41;;;;;;;0.00;0.00;;;;;;;11.82;66.25;102382.31;10511609;28;20048;-77
2022/05/05 21:14:43;;;;;;;0.00;0.00;;;;;;;11.44;69.26;102384.94;10522661;28;20423;-77
2022/05/05 21:25:29;;;;;;;0.00;0.00;;;;;;;11.24;69.96;102386.56;10526660;28;20456;-76
2022/05/05 21:30:27;;;;;;;0.00;0.00;;;;;;;11.31;68.90;102388.63;10531994;28;20317;-76
2022/05/05 21:35:29;;;;;;;0.00;0.00;;;;;;;11.18;69.52;102382.00;10532434;28;20454;-77
2022/05/05 21:40:46;;;;;;;0.00;0.00;;;;;;;11.06;69.59;102391.75;10529541;28;20044;-76
2022/05/05 21:45:50;;;;;;;0.35;0.32;;;;;;;10.97;68.77;102388.72;10537315;28;20067;-77
2022/05/05 21:50:51;;;;;;;0.00;0.00;;;;;;;10.74;70.03;102394.56;10540148;28;20052;-77
2022/05/05 21:55:53;;;;;;;0.00;0.00;;;;;;;10.79;70.05;102399.94;10536347;28;20048;-76
2022/05/05 22:00:57;;;;;;;0.00;0.00;;;;;;;10.78;71.93;102413.63;10537772;28;20441;-77
2022/05/05 22:06:01;;;;;;;0.00;0.00;;;;;;;11.12;67.48;102404.94;10530400;28;20044;-76
2022/05/05 22:11:04;;;;;;;0.00;0.00;;;;;;;10.76;70.62;102418.69;10536910;28;20418;-76
2022/05/05 22:16:08;;;;;;;0.00;0.00;;;;;;;10.66;71.59;102411.31;10538015;28;20044;-76
2022/05/05 22:21:10;;;;;;;0.00;0.00;;;;;;;10.73;71.40;102407.34;10537335;28;20137;-76
2022/05/05 22:26:12;;;;;;;0.00;0.00;;;;;;;10.59;72.07;102409.25;10539159;28;20533;-75
2022/05/05 22:31:13;;;;;;;0.00;0.00;;;;;;;10.56;70.55;102414.25;10529761;28;20056;-76
2022/05/05 22:36:16;;;;;;;0.00;0.00;;;;;;;10.31;71.96;102419.00;10531361;28;20048;-77
2022/05/05 22:46:37;;;;;;;0.63;0.63;;;;;;;10.09;72.08;102413.53;10530222;28;20084;-77
2022/05/05 22:51:39;;;;;;;0.00;0.00;;;;;;;10.02;71.89;102422.63;10535724;28;20071;-77
2022/05/05 22:56:41;;;;;;;0.00;0.00;;;;;;;9.96;71.23;102420.63;10532772;28;20100;-77
2022/05/05 23:01:42;;;;;;;0.00;0.00;;;;;;;9.79;71.46;102417.16;10535488;28;20048;-76
2022/05/05 23:06:44;;;;;;;0.00;0.00;;;;;;;9.53;74.42;102423.50;10527734;28;20052;-76
2022/05/05 23:11:46;;;;;;;0.00;0.00;;;;;;;9.57;73.68;102424.53;10513642;28;20575;-76
2022/05/05 23:16:48;;;;;;;2.05;0.73;;;;;;;9.46;73.47;102422.25;10517531;28;20044;-76
2022/05/05 23:21:50;;;;;;;0.00;0.00;;;;;;;9.25;74.41;102428.78;10529171;28;20097;-77
2022/05/05 23:26:53;;;;;;;0.00;0.00;;;;;;;9.21;75.04;102427.72;10519890;28;20117;-76
2022/05/05 23:31:55;;;;;;;0.88;0.88;;;;;;;9.02;75.54;102430.94;10536066;28;20080;-75
2022/05/05 23:36:57;;;;;;;3.10;1.45;;;;;;;9.09;75.50;102438.22;10537451;28;20064;-76
2022/05/05 23:41:58;;;;;;;0.00;0.00;;;;;;;9.23;73.03;102435.53;10535365;28;20076;-76
2022/05/05 23:47:00;;;;;;;0.00;0.00;;;;;;;9.38;70.71;102435.50;10534647;28;20076;-75
2022/05/05 23:52:04;;;;;;;0.00;0.00;;;;;;;9.07;74.08;102434.66;10530393;28;20043;-77
2022/05/05 23:57:06;;;;;;;0.00;0.00;;;;;;;9.16;73.23;102436.84;10525788;28;20481;-77
